Time;durP1;ratioP1;P1;durP2;ratioP2;P2;SDS_P1;SDS_P2;PMS_P1;PMS_P2;Temp;Humidity;BMP_temperature;BMP_pressure;BME280_temperature;BME280_humidity;BME280_pressure;Samples;Min_cycle;Max_cycle;Signal;HPM_P1;HPM_P2
2022/06/24 00:02:31;;;;;;;;;;;;;;;29.61;40.45;93888.00;5043731;28;9097;-60
2022/06/24 00:05:06;;;;;;;;;;;;;;;29.62;39.91;93892.25;4929536;28;8753;-60
2022/06/24 00:07:53;;;;;;;;;;;;;;;29.61;40.58;93901.84;4954287;28;7299;-60
2022/06/24 00:10:36;;;;;;;;;;;;;;;29.60;40.36;93897.63;4937943;28;7252;-60
2022/06/24 00:13:16;;;;;;;;;;;;;;;29.60;40.61;93894.84;4934615;29;7270;-60
2022/06/24 00:16:02;;;;;;;;;;;;;;;29.59;40.58;93896.13;4947125;28;7104;-60
2022/06/24 00:18:39;;;;;;;;;;;;;;;29.58;40.28;93894.66;4920890;28;9686;-60
2022/06/24 00:21:21;;;;;;;;;;;;;;;29.56;40.16;93895.19;4929540;29;9023;-60
2022/06/24 00:23:47;;;;;;;;;;;;;;;29.57;39.83;93895.94;4947736;28;9109;-60
2022/06/24 00:26:14;;;;;;;;;;;;;;;29.58;40.71;93897.44;4950087;28;7093;-60
2022/06/24 00:28:43;;;;;;;;;;;;;;;29.56;40.42;93891.66;4953375;28;6971;-60
2022/06/24 00:31:09;;;;;;;;;;;;;;;29.57;40.43;93896.69;4951450;28;9146;-60
2022/06/24 00:33:37;;;;;;;;;;;;;;;29.56;40.38;93902.75;4953909;28;9105;-60
2022/06/24 00:36:06;;;;;;;;;;;;;;;29.55;40.48;93892.97;4938479;28;9790;-60
2022/06/24 00:38:36;;;;;;;;;;;;;;;29.56;40.30;93897.22;4918281;29;9115;-60
2022/06/24 00:41:08;;;;;;;;;;;;;;;29.54;40.77;93891.47;4979880;28;7069;-60
2022/06/24 00:43:42;;;;;;;;;;;;;;;29.53;40.26;93898.31;5030565;28;8833;-60
2022/06/24 00:46:18;;;;;;;;;;;;;;;29.52;40.44;93899.59;5057362;28;7199;-60
2022/06/24 00:48:50;;;;;;;;;;;;;;;29.52;39.73;93902.38;5032657;28;6864;-60
2022/06/24 00:51:23;;;;;;;;;;;;;;;29.52;40.63;93902.38;5047032;28;7061;-60
2022/06/24 00:53:53;;;;;;;;;;;;;;;29.51;40.52;93898.88;5041079;28;9075;-60
2022/06/24 00:56:25;;;;;;;;;;;;;;;29.53;39.97;93892.78;5046005;28;7422;-60
2022/06/24 00:59:09;;;;;;;;;;;;;;;29.52;40.28;93892.03;5013857;28;8751;-60
2022/06/24 01:01:41;;;;;;;;;;;;;;;29.51;40.28;93893.34;5059022;28;9061;-60
2022/06/24 01:04:10;;;;;;;;;;;;;;;29.50;39.97;93896.63;5019201;28;7991;-61
2022/06/24 01:06:44;;;;;;;;;;;;;;;29.48;40.51;93891.66;5014473;28;7223;-60
2022/06/24 01:09:21;;;;;;;;;;;;;;;29.49;40.27;93887.56;5013622;28;7232;-60
2022/06/24 01:11:51;;;;;;;;;;;;;;;29.51;40.78;93889.81;5038350;28;8665;-60
2022/06/24 01:14:26;;;;;;;;;;;;;;;29.52;40.21;93885.75;5042521;28;7410;-60
2022/06/24 01:16:57;;;;;;;;;;;;;;;29.51;40.26;93890.56;5031502;28;8759;-60
2022/06/24 01:19:27;;;;;;;;;;;;;;;29.52;40.66;93896.81;5053960;28;8053;-60
2022/06/24 01:21:59;;;;;;;;;;;;;;;29.51;40.59;93889.81;5066027;28;9362;-60
2022/06/24 01:24:28;;;;;;;;;;;;;;;29.51;40.26;93896.09;5062269;28;6992;-60
2022/06/24 01:27:15;;;;;;;;;;;;;;;29.50;39.99;93900.16;5032207;28;9072;-60
2022/06/24 01:29:47;;;;;;;;;;;;;;;29.49;40.66;93897.94;5049720;28;9401;-60
2022/06/24 01:32:18;;;;;;;;;;;;;;;29.50;40.53;93893.88;5028461;28;7505;-60
2022/06/24 01:34:44;;;;;;;;;;;;;;;29.49;40.66;93897.94;5031704;28;7271;-60
2022/06/24 01:37:30;;;;;;;;;;;;;;;29.48;39.91;93891.66;5032323;28;7269;-61
2022/06/24 01:39:58;;;;;;;;;;;;;;;29.48;39.83;93896.44;5031835;28;9058;-60
2022/06/24 01:42:25;;;;;;;;;;;;;;;29.46;40.10;93894.22;5065436;28;7695;-60
2022/06/24 01:44:51;;;;;;;;;;;;;;;29.47;40.26;93900.53;5038776;28;7146;-60
2022/06/24 01:47:19;;;;;;;;;;;;;;;29.47;39.84;93901.25;5061571;28;8905;-60
2022/06/24 01:49:48;;;;;;;;;;;;;;;29.46;39.71;93899.03;5032201;28;7395;-60
2022/06/24 01:52:23;;;;;;;;;;;;;;;29.46;39.93;93890.72;5045373;28;9144;-60
2022/06/24 01:54:58;;;;;;;;;;;;;;;29.48;40.04;93890.91;5031807;28;7240;-60
2022/06/24 01:57:26;;;;;;;;;;;;;;;29.47;40.07;93889.44;5048551;28;9117;-60
2022/06/24 02:00:00;;;;;;;;;;;;;;;29.48;40.29;93891.66;5048070;28;9392;-60
2022/06/24 02:02:26;;;;;;;;;;;;;;;29.47;40.46;93884.63;5034903;28;7052;-60
2022/06/24 02:05:02;;;;;;;;;;;;;;;29.46;39.76;93879.63;5042094;28;9065;-60
2022/06/24 02:07:28;;;;;;;;;;;;;;;29.44;39.69;93877.41;5048016;28;7358;-60
2022/06/24 02:15:25;;;;;;;;;;;;;;;29.45;39.92;93880.94;5018342;28;7279;-60
2022/06/24 02:17:51;;;;;;;;;;;;;;;29.45;39.54;93878.16;5044094;28;6869;-60
2022/06/24 02:20:19;;;;;;;;;;;;;;;29.44;40.28;93871.13;5027131;28;7189;-60
2022/06/24 02:22:50;;;;;;;;;;;;;;;29.44;39.80;93865.59;5028916;28;7351;-60
2022/06/24 02:25:48;;;;;;;;;;;;;;;29.43;39.40;93861.31;5043426;28;9292;-60
2022/06/24 02:28:55;;;;;;;;;;;;;;;29.43;39.89;93867.63;4935018;28;7530;-60
2022/06/24 02:31:23;;;;;;;;;;;;;;;29.43;39.38;93872.41;4878827;29;9077;-60
2022/06/24 02:33:49;;;;;;;;;;;;;;;29.39;39.69;93864.47;4870277;29;9857;-60
2022/06/24 02:36:15;;;;;;;;;;;;;;;29.43;39.43;93866.88;4889938;29;7051;-60
2022/06/24 02:38:44;;;;;;;;;;;;;;;29.43;39.69;93861.31;4892699;29;7231;-60
2022/06/24 02:41:21;;;;;;;;;;;;;;;29.44;40.34;93851.72;4891251;29;7066;-60
2022/06/24 02:43:47;;;;;;;;;;;;;;;29.41;39.77;93856.34;4878786;29;7268;-60
2022/06/24 02:46:19;;;;;;;;;;;;;;;29.41;39.34;93850.06;4894028;29;9217;-60
2022/06/24 02:48:50;;;;;;;;;;;;;;;29.38;39.60;93853.94;4879230;29;9137;-60
2022/06/24 02:51:16;;;;;;;;;;;;;;;29.38;39.81;93851.16;4894096;29;7102;-60
2022/06/24 02:53:43;;;;;;;;;;;;;;;29.38;40.02;93854.69;4893935;29;6852;-60
2022/06/24 02:56:14;;;;;;;;;;;;;;;29.37;39.73;93852.44;4895055;29;7342;-60
2022/06/24 02:58:53;;;;;;;;;;;;;;;29.38;39.58;93859.47;4894848;29;9098;-60
2022/06/24 03:01:19;;;;;;;;;;;;;;;29.38;39.61;93859.47;4878397;29;7108;-60
2022/06/24 03:04:18;;;;;;;;;;;;;;;29.37;39.36;93853.19;4891565;28;9009;-60
2022/06/24 03:07:03;;;;;;;;;;;;;;;29.36;40.13;93851.69;4935333;29;9393;-60
2022/06/24 03:09:39;;;;;;;;;;;;;;;29.36;40.11;93848.22;4948474;29;6852;-60
2022/06/24 03:12:26;;;;;;;;;;;;;;;29.36;39.83;93842.66;4967350;28;9440;-60
2022/06/24 03:14:55;;;;;;;;;;;;;;;29.35;39.79;93846.72;4937363;28;9648;-60
2022/06/24 03:17:20;;;;;;;;;;;;;;;29.34;39.98;93845.25;4967807;28;8605;-60
2022/06/24 03:19:57;;;;;;;;;;;;;;;29.34;40.06;93840.44;4937446;29;7360;-60
2022/06/24 03:22:23;;;;;;;;;;;;;;;29.35;39.31;93835.63;4916923;29;9321;-60
2022/06/24 03:24:49;;;;;;;;;;;;;;;29.34;39.58;93843.19;4964406;28;7590;-60
2022/06/24 03:27:46;;;;;;;;;;;;;;;29.35;39.82;93841.16;4962920;28;7134;-60
2022/06/24 03:30:24;;;;;;;;;;;;;;;29.33;39.64;93847.28;4893683;29;9053;-60
2022/06/24 03:32:50;;;;;;;;;;;;;;;29.35;39.66;93850.22;4907315;29;9444;-60
2022/06/24 03:35:16;;;;;;;;;;;;;;;29.32;39.54;93845.78;4906074;29;8876;-60
2022/06/24 03:37:44;;;;;;;;;;;;;;;29.32;39.69;93845.78;4906152;29;7364;-60
2022/06/24 03:40:11;;;;;;;;;;;;;;;29.33;39.21;93849.28;4874056;29;7093;-60
2022/06/24 03:42:39;;;;;;;;;;;;;;;29.32;39.77;93850.59;4890930;28;8764;-60
2022/06/24 03:45:08;;;;;;;;;;;;;;;29.31;39.51;93838.03;4934010;28;7239;-60
2022/06/24 03:47:34;;;;;;;;;;;;;;;29.32;40.00;93842.28;4931574;28;9235;-60
2022/06/24 03:50:00;;;;;;;;;;;;;;;29.31;39.72;93840.78;4954349;28;7034;-60
2022/06/24 03:52:29;;;;;;;;;;;;;;;29.30;39.01;93848.34;4917847;29;7481;-60
2022/06/24 03:54:55;;;;;;;;;;;;;;;29.31;39.71;93849.09;4959561;28;9443;-60
2022/06/24 03:57:21;;;;;;;;;;;;;;;29.29;39.39;93846.88;4935537;28;9144;-60
2022/06/24 03:59:48;;;;;;;;;;;;;;;29.29;39.44;93846.16;4937414;28;7488;-60
2022/06/24 04:02:14;;;;;;;;;;;;;;;29.29;39.52;93840.59;4936953;28;7528;-60
2022/06/24 04:04:42;;;;;;;;;;;;;;;29.30;39.93;93844.84;4934532;28;7075;-60
2022/06/24 04:07:10;;;;;;;;;;;;;;;29.29;38.84;93846.16;4983407;28;9993;-60
2022/06/24 04:09:39;;;;;;;;;;;;;;;29.29;39.50;93846.16;5029189;28;8876;-60
2022/06/24 04:12:07;;;;;;;;;;;;;;;29.28;39.39;93845.41;5031061;28;7000;-60
2022/06/24 04:17:20;;;;;;;;;;;;;;;29.28;39.59;93850.19;5031718;28;7198;-60
2022/06/24 04:19:46;;;;;;;;;;;;;;;29.27;39.40;93848.72;5032596;28;9068;-60
2022/06/24 04:22:12;;;;;;;;;;;;;;;29.28;39.60;93847.41;5030628;28;9034;-60
2022/06/24 04:24:38;;;;;;;;;;;;;;;29.27;40.03;93851.50;5046415;28;9275;-60
2022/06/24 04:27:05;;;;;;;;;;;;;;;29.27;39.80;93848.72;5045742;28;7238;-60
2022/06/24 04:29:31;;;;;;;;;;;;;;;29.27;39.71;93852.25;5066807;28;7096;-60
2022/06/24 04:31:57;;;;;;;;;;;;;;;29.26;39.51;93853.50;5045884;28;9400;-60
2022/06/24 04:34:23;;;;;;;;;;;;;;;29.26;39.67;93859.06;5028776;28;7381;-60
2022/06/24 04:36:49;;;;;;;;;;;;;;;29.24;39.19;93849.81;5030094;28;7218;-60
2022/06/24 04:39:17;;;;;;;;;;;;;;;29.25;39.68;93845.75;5030709;28;7186;-60
2022/06/24 04:41:46;;;;;;;;;;;;;;;29.25;39.26;93848.53;5033941;28;8730;-60
2022/06/24 04:44:12;;;;;;;;;;;;;;;29.25;39.66;93851.31;5037322;28;7274;-60
2022/06/24 04:46:38;;;;;;;;;;;;;;;29.24;39.51;93850.56;5019820;28;7591;-60
2022/06/24 04:49:04;;;;;;;;;;;;;;;29.24;39.48;93847.78;5038020;28;9082;-60
2022/06/24 04:51:32;;;;;;;;;;;;;;;29.25;39.94;93852.06;5038958;28;9004;-60
2022/06/24 04:54:28;;;;;;;;;;;;;;;29.24;39.07;93850.56;5048123;28;7067;-60
2022/06/24 04:56:56;;;;;;;;;;;;;;;29.23;39.05;93845.56;4945138;28;9027;-60
2022/06/24 04:59:22;;;;;;;;;;;;;;;29.20;39.69;93843.88;4947136;28;7049;-60
2022/06/24 05:01:57;;;;;;;;;;;;;;;29.21;39.59;93837.06;4930531;29;9198;-60
2022/06/24 05:04:34;;;;;;;;;;;;;;;29.20;40.13;93833.56;4933326;28;7070;-60
2022/06/24 05:07:12;;;;;;;;;;;;;;;29.19;39.82;93828.56;4953150;28;9047;-60
2022/06/24 05:09:38;;;;;;;;;;;;;;;29.18;39.64;93832.63;4928813;28;7444;-60
2022/06/24 05:12:05;;;;;;;;;;;;;;;29.19;39.71;93825.81;4926326;28;9149;-60
2022/06/24 05:14:33;;;;;;;;;;;;;;;29.20;40.16;93832.81;4944024;28;9108;-60
2022/06/24 05:16:59;;;;;;;;;;;;;;;29.20;39.64;93832.81;4919579;28;9049;-60
2022/06/24 05:19:26;;;;;;;;;;;;;;;29.19;39.10;93834.13;4935658;28;8983;-60
2022/06/24 05:21:57;;;;;;;;;;;;;;;29.17;39.39;93825.63;4925094;29;8742;-61
2022/06/24 05:24:24;;;;;;;;;;;;;;;29.09;38.78;93817.97;4938612;28;7270;-60
2022/06/24 05:26:50;;;;;;;;;;;;;;;29.12;39.68;93832.75;4919800;28;9076;-61
2022/06/24 05:29:16;;;;;;;;;;;;;;;29.12;39.57;93826.47;4926965;28;9052;-61
2022/06/24 05:31:42;;;;;;;;;;;;;;;29.09;39.06;93822.78;4926354;28;9088;-61
2022/06/24 05:34:23;;;;;;;;;;;;;;;29.05;39.37;93812.06;5007671;28;7256;-61
2022/06/24 05:36:55;;;;;;;;;;;;;;;29.05;39.50;93800.22;5028344;28;7062;-61
2022/06/24 05:39:25;;;;;;;;;;;;;;;29.05;39.45;93814.81;5058172;28;7747;-61
2022/06/24 05:42:07;;;;;;;;;;;;;;;29.03;39.87;93811.88;5039500;28;9246;-61
2022/06/24 05:44:33;;;;;;;;;;;;;;;29.04;40.09;93798.75;5054479;28;7007;-61
2022/06/24 05:46:59;;;;;;;;;;;;;;;29.01;40.03;93800.56;5038071;28;7266;-61
2022/06/24 05:49:28;;;;;;;;;;;;;;;29.00;39.80;93790.81;5033770;28;6848;-61
2022/06/24 05:51:54;;;;;;;;;;;;;;;29.01;40.08;93797.81;5032419;28;8765;-61
2022/06/24 05:57:10;;;;;;;;;;;;;;;28.98;40.12;93781.56;5029944;28;9304;-61
2022/06/24 05:59:38;;;;;;;;;;;;;;;28.98;40.18;93785.06;5033645;28;7121;-60
2022/06/24 06:02:13;;;;;;;;;;;;;;;28.99;39.97;93780.28;5034767;28;8628;-60
2022/06/24 06:05:15;;;;;;;;;;;;;;;28.98;39.56;93774.00;5030224;28;9485;-60
2022/06/24 06:07:50;;;;;;;;;;;;;;;28.95;40.27;93777.84;4952008;28;7466;-60
2022/06/24 06:10:45;;;;;;;;;;;;;;;28.98;40.20;93768.47;4952493;28;9209;-61
2022/06/24 06:13:26;;;;;;;;;;;;;;;28.97;40.13;93775.28;4906569;29;9480;-61
2022/06/24 06:15:53;;;;;;;;;;;;;;;28.99;40.47;93774.75;4910468;29;7278;-62
2022/06/24 06:18:19;;;;;;;;;;;;;;;28.92;40.47;93780.97;4887592;29;6849;-61
2022/06/24 06:20:47;;;;;;;;;;;;;;;28.91;40.08;93777.47;4893898;29;9150;-60
2022/06/24 06:23:13;;;;;;;;;;;;;;;28.91;40.70;93783.00;4893711;29;9033;-60
2022/06/24 06:25:40;;;;;;;;;;;;;;;28.92;40.14;93781.72;4896850;29;7074;-60
2022/06/24 06:28:13;;;;;;;;;;;;;;;28.90;40.46;93773.25;4910519;29;9025;-60
2022/06/24 06:30:39;;;;;;;;;;;;;;;28.88;40.61;93775.78;4885851;29;7467;-60
2022/06/24 06:33:08;;;;;;;;;;;;;;;28.89;40.84;93768.22;4890057;29;9084;-61
2022/06/24 06:35:34;;;;;;;;;;;;;;;28.86;40.75;93758.97;4892282;29;7242;-60
2022/06/24 06:38:01;;;;;;;;;;;;;;;28.88;40.95;93761.22;4894259;29;9239;-60
2022/06/24 06:40:43;;;;;;;;;;;;;;;28.86;41.05;93761.75;4918783;29;9107;-61
2022/06/24 06:43:11;;;;;;;;;;;;;;;28.84;41.17;93760.84;5003348;28;7267;-61
2022/06/24 06:45:37;;;;;;;;;;;;;;;28.83;41.13;93757.31;4972965;28;8306;-61
2022/06/24 06:48:07;;;;;;;;;;;;;;;28.83;41.19;93753.81;4980316;28;9449;-60
2022/06/24 06:50:33;;;;;;;;;;;;;;;28.85;41.71;93759.53;5031433;28;7007;-61
2022/06/24 06:52:59;;;;;;;;;;;;;;;28.84;41.77;93758.78;5049829;28;7107;-61
2022/06/24 06:55:28;;;;;;;;;;;;;;;28.86;41.26;93747.91;5042300;28;7398;-61
2022/06/24 06:58:01;;;;;;;;;;;;;;;28.88;41.71;93750.88;5033554;28;9178;-61
2022/06/24 07:00:27;;;;;;;;;;;;;;;28.89;41.52;93741.28;5028454;28;9481;-61
2022/06/24 07:02:57;;;;;;;;;;;;;;;28.89;41.59;93737.78;5040263;28;7263;-61
2022/06/24 07:05:31;;;;;;;;;;;;;;;28.89;41.54;93738.53;5035716;28;7275;-61
2022/06/24 07:07:57;;;;;;;;;;;;;;;28.88;41.70;93728.72;5034095;28;9111;-61
2022/06/24 07:10:23;;;;;;;;;;;;;;;28.89;42.21;93730.22;5023003;28;7035;-61
2022/06/24 07:12:49;;;;;;;;;;;;;;;28.89;41.64;93727.44;5060069;28;7233;-60
2022/06/24 07:15:28;;;;;;;;;;;;;;;28.89;41.64;93716.38;5037533;28;9053;-60
2022/06/24 07:18:04;;;;;;;;;;;;;;;28.92;42.04;93725.63;5031456;28;9161;-60
2022/06/24 07:20:39;;;;;;;;;;;;;;;28.93;42.06;93716.75;5028549;28;7063;-60
2022/06/24 07:23:06;;;;;;;;;;;;;;;28.96;42.08;93710.13;5045770;28;7140;-60
2022/06/24 07:25:33;;;;;;;;;;;;;;;28.95;41.48;93711.41;5029661;28;7512;-60
2022/06/24 07:27:59;;;;;;;;;;;;;;;28.96;42.13;93701.06;5027114;28;8723;-60
2022/06/24 07:30:28;;;;;;;;;;;;;;;28.92;41.60;93692.41;5046201;28;7347;-60
2022/06/24 07:33:09;;;;;;;;;;;;;;;28.97;41.58;93699.81;5039950;28;7220;-60
2022/06/24 07:35:44;;;;;;;;;;;;;;;28.95;43.84;93694.78;5037443;28;7019;-60
2022/06/24 07:38:47;;;;;;;;;;;;;;;28.97;42.47;93691.50;5041789;28;9124;-60
2022/06/24 07:41:14;;;;;;;;;;;;;;;28.96;42.11;93685.22;4965726;28;9315;-60
2022/06/24 07:43:41;;;;;;;;;;;;;;;28.97;42.26;93677.66;4966866;28;7652;-60
2022/06/24 07:46:08;;;;;;;;;;;;;;;28.93;42.21;93680.75;4962826;28;7092;-60
2022/06/24 07:48:35;;;;;;;;;;;;;;;28.95;42.31;93675.41;4945991;28;7295;-60
2022/06/24 07:51:13;;;;;;;;;;;;;;;28.95;42.85;93675.41;4952196;28;8857;-60
2022/06/24 07:53:43;;;;;;;;;;;;;;;28.93;42.43;93680.75;4970095;28;9149;-60
2022/06/24 07:58:54;;;;;;;;;;;;;;;28.95;42.96;93689.25;4971175;28;9008;-60
2022/06/24 08:01:20;;;;;;;;;;;;;;;28.96;41.87;93682.44;4953402;28;9441;-61
2022/06/24 08:03:46;;;;;;;;;;;;;;;28.98;42.22;93687.41;4970302;28;9175;-61
2022/06/24 08:06:12;;;;;;;;;;;;;;;28.99;41.91;93677.84;4935141;28;9196;-60
2022/06/24 08:08:38;;;;;;;;;;;;;;;29.00;41.58;93687.59;4964786;28;8844;-60
2022/06/24 08:11:05;;;;;;;;;;;;;;;28.96;42.01;93685.22;4950086;28;7209;-60
2022/06/24 08:13:32;;;;;;;;;;;;;;;28.96;42.73;93687.22;4945411;28;7267;-60
2022/06/24 08:16:00;;;;;;;;;;;;;;;28.94;41.75;93668.41;5031567;28;9374;-60
2022/06/24 08:18:27;;;;;;;;;;;;;;;28.92;41.98;93662.69;5033369;28;7253;-60
2022/06/24 08:20:53;;;;;;;;;;;;;;;28.93;42.26;93658.63;5046512;28;7587;-60
2022/06/24 08:23:20;;;;;;;;;;;;;;;28.94;41.41;93657.34;5031341;28;6916;-60
2022/06/24 08:25:46;;;;;;;;;;;;;;;28.93;41.72;93652.34;5048590;28;9262;-60
2022/06/24 08:28:12;;;;;;;;;;;;;;;28.94;41.84;93659.38;5028514;28;8733;-60
2022/06/24 08:30:38;;;;;;;;;;;;;;;28.93;42.40;93653.09;5034242;28;7269;-60
2022/06/24 08:33:06;;;;;;;;;;;;;;;28.95;42.00;93656.03;5034893;28;9181;-60
2022/06/24 08:35:33;;;;;;;;;;;;;;;28.95;41.66;93653.28;5027750;28;7333;-60
2022/06/24 08:37:59;;;;;;;;;;;;;;;28.96;41.26;93654.00;5034914;28;7224;-60
2022/06/24 08:40:27;;;;;;;;;;;;;;;28.96;41.50;93654.75;5027964;28;7312;-61
2022/06/24 08:42:56;;;;;;;;;;;;;;;28.93;41.46;93655.84;5053090;28;9513;-60
2022/06/24 08:45:27;;;;;;;;;;;;;;;28.93;41.29;93653.09;5030803;28;7074;-60
2022/06/24 08:47:54;;;;;;;;;;;;;;;28.93;41.46;93660.63;5051166;28;9168;-60
2022/06/24 08:50:21;;;;;;;;;;;;;;;28.92;41.67;93657.16;5042940;28;8282;-60
2022/06/24 08:52:53;;;;;;;;;;;;;;;28.89;41.24;93655.47;5032100;28;9068;-60
2022/06/24 08:55:24;;;;;;;;;;;;;;;28.92;41.39;93665.47;5030967;28;9245;-60
2022/06/24 08:57:52;;;;;;;;;;;;;;;28.91;41.37;93652.91;5048499;28;7824;-60
2022/06/24 09:00:19;;;;;;;;;;;;;;;28.93;41.22;93649.56;5037456;28;9087;-60
2022/06/24 09:02:47;;;;;;;;;;;;;;;28.93;41.23;93655.09;5029903;28;7283;-60
2022/06/24 09:05:15;;;;;;;;;;;;;;;28.90;40.94;93650.69;5031136;28;7897;-61
2022/06/24 09:07:42;;;;;;;;;;;;;;;28.91;41.44;93638.31;5039886;28;9360;-60
2022/06/24 09:10:13;;;;;;;;;;;;;;;28.93;40.60;93633.69;5039305;28;9105;-61
2022/06/24 09:12:50;;;;;;;;;;;;;;;28.91;41.28;93650.13;5035231;28;7080;-60
2022/06/24 09:15:17;;;;;;;;;;;;;;;28.91;41.31;93647.34;5048114;28;6866;-60
2022/06/24 09:18:20;;;;;;;;;;;;;;;28.89;41.39;93643.66;5048544;28;9312;-60
2022/06/24 09:20:49;;;;;;;;;;;;;;;28.89;41.02;93644.41;4932409;28;7464;-60
2022/06/24 09:23:27;;;;;;;;;;;;;;;28.91;41.67;93639.06;4951657;28;9144;-60
2022/06/24 09:26:02;;;;;;;;;;;;;;;28.90;41.03;93651.44;4942349;28;7224;-61
2022/06/24 09:28:31;;;;;;;;;;;;;;;28.90;41.01;93651.44;4935622;28;7078;-60
2022/06/24 09:31:13;;;;;;;;;;;;;;;28.91;40.86;93657.69;4935875;28;7580;-60
2022/06/24 09:33:44;;;;;;;;;;;;;;;28.89;41.17;93651.97;4920774;28;9230;-60
2022/06/24 09:36:12;;;;;;;;;;;;;;;28.89;41.01;93660.25;4951102;28;7879;-60
2022/06/24 09:39:03;;;;;;;;;;;;;;;28.89;40.94;93658.25;4933466;28;7258;-60
2022/06/24 09:41:41;;;;;;;;;;;;;;;28.89;41.32;93654.72;4932589;28;8758;-60
2022/06/24 09:44:09;;;;;;;;;;;;;;;28.88;41.22;93653.97;4940077;28;9030;-60
2022/06/24 09:46:35;;;;;;;;;;;;;;;28.89;41.25;93649.94;4931512;28;9235;-60
2022/06/24 09:49:04;;;;;;;;;;;;;;;28.88;41.31;93648.44;4931271;28;7272;-60
2022/06/24 09:51:31;;;;;;;;;;;;;;;28.89;42.71;93643.66;4946805;28;8992;-60
2022/06/24 09:53:58;;;;;;;;;;;;;;;28.89;43.40;93633.34;4950105;28;8886;-60
2022/06/24 09:56:24;;;;;;;;;;;;;;;28.93;43.91;93633.69;4972373;28;7099;-60
2022/06/24 10:02:00;;;;;;;;;;;;;;;28.97;44.55;93649.97;5037331;28;7854;-60
2022/06/24 10:04:35;;;;;;;;;;;;;;;28.95;44.35;93656.03;5034263;28;7397;-60
2022/06/24 10:07:09;;;;;;;;;;;;;;;28.94;43.02;93662.88;5039380;28;7271;-60
2022/06/24 10:09:39;;;;;;;;;;;;;;;28.92;43.90;93659.91;5039876;28;7054;-60
2022/06/24 10:12:14;;;;;;;;;;;;;;;28.90;42.54;93648.66;5037755;28;7859;-60
2022/06/24 10:14:40;;;;;;;;;;;;;;;28.91;43.18;93643.84;5030011;28;7361;-60
2022/06/24 10:17:06;;;;;;;;;;;;;;;28.91;43.06;93641.06;5038347;28;7048;-60
2022/06/24 10:19:33;;;;;;;;;;;;;;;28.91;43.29;93627.97;5028516;28;7537;-60
2022/06/24 10:22:00;;;;;;;;;;;;;;;28.92;43.21;93623.19;5026943;28;8883;-60
2022/06/24 10:24:40;;;;;;;;;;;;;;;28.95;42.64;93631.13;5029541;28;7835;-60
2022/06/24 10:27:08;;;;;;;;;;;;;;;28.92;42.47;93637.03;5032280;28;9202;-60
2022/06/24 10:29:36;;;;;;;;;;;;;;;28.90;43.04;93634.81;5032799;28;9178;-60
2022/06/24 10:32:15;;;;;;;;;;;;;;;28.93;42.27;93641.25;5029886;28;8906;-60
2022/06/24 10:34:52;;;;;;;;;;;;;;;28.94;42.51;93640.72;5027678;28;7352;-60
2022/06/24 10:37:24;;;;;;;;;;;;;;;28.94;42.30;93634.44;5053726;28;9132;-61
2022/06/24 10:40:01;;;;;;;;;;;;;;;28.96;41.71;93626.31;5028066;28;9507;-60
2022/06/24 10:42:30;;;;;;;;;;;;;;;28.96;42.50;93616.00;5064612;28;7440;-60
2022/06/24 10:45:03;;;;;;;;;;;;;;;28.95;42.96;93611.75;5049646;28;9123;-60
2022/06/24 10:47:37;;;;;;;;;;;;;;;28.95;42.43;93622.81;5061434;28;9057;-60
2022/06/24 10:50:11;;;;;;;;;;;;;;;28.97;41.86;93623.00;5029262;28;7700;-60
2022/06/24 10:52:50;;;;;;;;;;;;;;;29.01;41.84;93612.28;5032410;28;7128;-61
2022/06/24 10:55:28;;;;;;;;;;;;;;;29.03;41.88;93604.19;5031883;28;9102;-61
2022/06/24 10:57:55;;;;;;;;;;;;;;;29.07;41.87;93610.09;5054289;28;7176;-60
2022/06/24 11:00:28;;;;;;;;;;;;;;;29.06;41.73;93630.03;5040672;28;7474;-61
2022/06/24 11:03:13;;;;;;;;;;;;;;;29.09;41.30;93659.38;5032876;28;7244;-61
2022/06/24 11:06:00;;;;;;;;;;;;;;;29.08;41.49;93680.06;5030007;28;9330;-61
2022/06/24 11:08:27;;;;;;;;;;;;;;;29.10;41.64;93680.97;5038677;28;6985;-60
2022/06/24 11:10:55;;;;;;;;;;;;;;;29.11;41.44;93690.03;5035566;28;9123;-60
2022/06/24 11:13:23;;;;;;;;;;;;;;;29.12;40.87;93710.16;5038033;28;7967;-60
2022/06/24 11:16:01;;;;;;;;;;;;;;;29.10;41.77;93716.97;5037947;28;9341;-60
2022/06/24 11:18:35;;;;;;;;;;;;;;;29.08;41.64;93721.59;5059119;28;8033;-60
2022/06/24 11:21:09;;;;;;;;;;;;;;;29.04;41.86;93715.66;5036200;28;9385;-61
2022/06/24 11:23:39;;;;;;;;;;;;;;;29.00;42.19;93720.84;5051777;28;9207;-60
2022/06/24 11:26:14;;;;;;;;;;;;;;;28.99;41.66;93719.38;5051719;28;7183;-61
2022/06/24 11:28:42;;;;;;;;;;;;;;;28.99;42.14;93725.63;5030283;28;7283;-61
2022/06/24 11:31:25;;;;;;;;;;;;;;;28.96;42.25;93717.69;5031847;28;9146;-61
2022/06/24 11:34:08;;;;;;;;;;;;;;;28.93;41.79;93722.28;5046961;28;8385;-60
2022/06/24 11:36:39;;;;;;;;;;;;;;;28.94;42.29;93721.00;5036993;28;8765;-61
2022/06/24 11:39:07;;;;;;;;;;;;;;;28.93;41.98;93705.69;5040006;28;8733;-60
2022/06/24 11:41:45;;;;;;;;;;;;;;;28.94;42.18;93706.44;5030307;28;7077;-60
2022/06/24 11:44:39;;;;;;;;;;;;;;;28.96;42.36;93723.97;5032502;28;9219;-60
2022/06/24 11:47:09;;;;;;;;;;;;;;;28.95;42.17;93728.00;5032158;28;8628;-60
2022/06/24 11:49:42;;;;;;;;;;;;;;;28.98;42.05;93729.69;5031831;28;8717;-61
2022/06/24 11:52:08;;;;;;;;;;;;;;;28.98;42.15;93718.63;5031142;28;7047;-60
2022/06/24 11:54:48;;;;;;;;;;;;;;;29.01;42.18;93714.03;5059063;28;9333;-61
2022/06/24 11:57:24;;;;;;;;;;;;;;;29.05;41.95;93706.84;5035767;28;9274;-60
2022/06/24 11:59:58;;;;;;;;;;;;;;;29.07;41.71;93714.59;5038043;28;7282;-60
2022/06/24 12:02:29;;;;;;;;;;;;;;;29.07;42.04;93715.34;5034315;28;9332;-61
2022/06/24 12:05:28;;;;;;;;;;;;;;;29.06;42.37;93713.09;5041293;28;9415;-60
2022/06/24 12:08:02;;;;;;;;;;;;;;;29.04;41.89;93710.88;5035770;28;9136;-60
2022/06/24 12:10:52;;;;;;;;;;;;;;;29.04;42.04;93723.97;5053844;28;9420;-60
2022/06/24 12:13:32;;;;;;;;;;;;;;;29.05;42.46;93729.00;5037339;28;7693;-60
2022/06/24 12:16:00;;;;;;;;;;;;;;;29.07;41.96;93736.75;5032682;28;7080;-60
2022/06/24 12:18:34;;;;;;;;;;;;;;;29.08;42.24;93741.72;5040701;28;7239;-60
2022/06/24 12:21:30;;;;;;;;;;;;;;;29.10;41.52;93746.72;5035703;28;6831;-61
2022/06/24 12:24:23;;;;;;;;;;;;;;;29.09;42.35;93756.31;5035012;28;7353;-61
2022/06/24 12:27:03;;;;;;;;;;;;;;;29.11;42.37;93767.56;5035101;28;7604;-60
2022/06/24 12:29:42;;;;;;;;;;;;;;;29.14;42.21;93757.44;5031578;28;7290;-61
2022/06/24 12:32:10;;;;;;;;;;;;;;;29.12;42.08;93752.44;5035157;28;9973;-61
2022/06/24 12:34:54;;;;;;;;;;;;;;;29.16;41.69;93750.09;5038185;28;7169;-61
2022/06/24 12:37:21;;;;;;;;;;;;;;;29.15;42.18;93747.81;5029609;28;9041;-61
2022/06/24 12:39:55;;;;;;;;;;;;;;;29.15;41.75;93745.06;5044165;28;7911;-61
2022/06/24 12:42:24;;;;;;;;;;;;;;;29.13;41.78;93744.88;5025162;28;9481;-60
2022/06/24 12:44:52;;;;;;;;;;;;;;;29.10;41.99;93738.41;5034558;28;7201;-59
2022/06/24 12:53:01;;;;;;;;;;;;;;;29.04;41.88;93749.66;5032780;28;8915;-60
2022/06/24 12:55:32;;;;;;;;;;;;;;;29.03;42.15;93759.25;5039202;28;9408;-61
2022/06/24 12:57:59;;;;;;;;;;;;;;;29.02;41.62;93760.53;5032238;28;9064;-61
2022/06/24 13:00:35;;;;;;;;;;;;;;;29.01;41.91;93756.28;5055889;28;7188;-61
2022/06/24 13:03:08;;;;;;;;;;;;;;;29.02;41.55;93752.22;5033509;28;6981;-61
2022/06/24 13:05:42;;;;;;;;;;;;;;;29.02;42.31;93757.75;5015544;28;8753;-61
2022/06/24 13:08:16;;;;;;;;;;;;;;;29.02;41.56;93763.31;5048755;28;7190;-61
2022/06/24 13:10:52;;;;;;;;;;;;;;;29.03;41.71;93784.19;5027450;28;7184;-61
2022/06/24 13:13:27;;;;;;;;;;;;;;;29.02;41.84;93782.69;5062743;28;7261;-61
2022/06/24 13:15:53;;;;;;;;;;;;;;;29.03;42.30;93786.94;5031590;28;7381;-61
2022/06/24 13:18:20;;;;;;;;;;;;;;;29.02;41.91;93799.28;5039546;28;7291;-61
2022/06/24 13:20:47;;;;;;;;;;;;;;;29.04;41.70;93805.03;5027132;28;7246;-61
2022/06/24 13:23:15;;;;;;;;;;;;;;;29.05;42.05;93805.78;5026365;28;9095;-61
2022/06/24 13:25:44;;;;;;;;;;;;;;;29.03;42.20;93814.63;5025423;28;10133;-61
2022/06/24 13:28:12;;;;;;;;;;;;;;;29.02;41.72;93818.69;5027142;28;7267;-61
2022/06/24 13:30:39;;;;;;;;;;;;;;;29.03;42.31;93831.25;5020588;28;7339;-61
2022/06/24 13:33:07;;;;;;;;;;;;;;;29.01;42.07;93836.56;5027622;28;7272;-61
2022/06/24 13:35:33;;;;;;;;;;;;;;;29.01;41.68;93844.16;5051701;28;9053;-61
2022/06/24 13:38:01;;;;;;;;;;;;;;;29.02;41.94;93854.69;5047935;28;9122;-61
2022/06/24 13:40:27;;;;;;;;;;;;;;;29.02;42.12;93857.44;5045024;28;9394;-61
2022/06/24 13:42:55;;;;;;;;;;;;;;;29.02;42.02;93865.00;5051586;28;7069;-61
2022/06/24 13:45:24;;;;;;;;;;;;;;;28.98;42.22;93864.63;5035625;28;9084;-61